createdAt,value
2018-03-29T00:02:51.659Z,6.40
2018-03-29T00:07:53.936Z,6.40
2018-03-29T00:12:56.229Z,6.30
2018-03-29T00:17:58.529Z,6.20
2018-03-29T00:23:00.873Z,6.20
2018-03-29T00:28:02.442Z,6.20
2018-03-29T00:33:03.985Z,6.10
2018-03-29T00:38:05.506Z,6.10
2018-03-29T00:43:07.796Z,6.00
2018-03-29T00:48:10.151Z,6.00
2018-03-29T00:53:30.219Z,5.90
2018-03-29T00:58:31.786Z,6.00
2018-03-29T01:03:33.337Z,6.10
2018-03-29T01:08:35.880Z,6.10
2018-03-29T01:13:37.437Z,6.10
2018-03-29T01:18:38.940Z,6.10
2018-03-29T01:23:41.252Z,6.10
2018-03-29T01:28:42.788Z,6.10
2018-03-29T01:33:45.074Z,6.20
2018-03-29T01:38:46.566Z,6.10
2018-03-29T01:43:48.076Z,6.20
2018-03-29T01:48:49.604Z,6.20
2018-03-29T01:53:51.213Z,6.10
2018-03-29T01:58:52.725Z,6.10
2018-03-29T02:03:55.188Z,6.10
2018-03-29T02:08:56.701Z,6.00
2018-03-29T02:13:58.225Z,6.10
2018-03-29T02:18:59.753Z,6.10
2018-03-29T02:24:01.323Z,6.10
2018-03-29T02:29:02.881Z,6.10
2018-03-29T02:34:04.407Z,6.10
2018-03-29T02:39:06.773Z,6.10
2018-03-29T02:44:08.264Z,6.10
2018-03-29T02:49:10.604Z,6.20
2018-03-29T02:54:12.131Z,6.20
2018-03-29T02:59:14.457Z,6.20
2018-03-29T03:04:15.962Z,6.20
2018-03-29T03:09:17.501Z,6.20
2018-03-29T03:14:19.093Z,6.30
2018-03-29T03:19:20.620Z,6.40
2018-03-29T03:24:22.216Z,6.30
2018-03-29T03:29:30.940Z,6.30
2018-03-29T03:34:32.446Z,6.40
2018-03-29T03:39:34.718Z,6.40
2018-03-29T03:44:36.319Z,6.40
2018-03-29T03:49:38.577Z,6.30
2018-03-29T03:54:40.115Z,6.30
2018-03-29T03:59:41.701Z,6.30
2018-03-29T04:04:43.253Z,6.30
2018-03-29T04:09:44.785Z,6.20
2018-03-29T04:14:59.564Z,6.20
2018-03-29T04:20:01.115Z,6.10
2018-03-29T04:25:03.389Z,7.20
2018-03-29T04:30:05.663Z,7.40
2018-03-29T04:35:07.193Z,7.30
2018-03-29T04:40:08.684Z,7.20
2018-03-29T04:45:10.210Z,7.40
2018-03-29T04:50:11.766Z,7.40
2018-03-29T04:55:13.249Z,7.50
2018-03-29T05:00:14.803Z,7.70
2018-03-29T05:05:16.310Z,7.40
2018-03-29T05:10:17.833Z,7.00
2018-03-29T05:15:19.345Z,6.80
2018-03-29T05:20:20.904Z,6.70
2018-03-29T05:25:22.553Z,6.70
2018-03-29T05:30:24.111Z,6.80
2018-03-29T05:35:25.622Z,7.00
2018-03-29T05:40:27.163Z,7.10
2018-03-29T05:45:28.913Z,6.90
2018-03-29T05:50:31.193Z,6.90
2018-03-29T05:55:33.465Z,7.10
2018-03-29T06:00:36.649Z,7.10
2018-03-29T06:05:38.175Z,7.10
2018-03-29T06:10:39.686Z,7.20
2018-03-29T06:15:41.207Z,7.40
2018-03-29T06:20:42.748Z,7.40
2018-03-29T06:25:45.006Z,7.40
2018-03-29T06:30:46.529Z,7.30
2018-03-29T06:35:48.181Z,7.40
2018-03-29T06:40:50.510Z,7.20
2018-03-29T06:45:52.133Z,7.20
2018-03-29T06:50:54.409Z,7.10
2018-03-29T06:55:55.968Z,7.00
2018-03-29T07:00:57.540Z,7.00
2018-03-29T07:05:59.025Z,6.90
2018-03-29T07:11:01.309Z,7.50
2018-03-29T07:16:03.562Z,7.80
2018-03-29T07:21:05.097Z,7.80
2018-03-29T07:26:14.475Z,8.20
2018-03-29T07:31:16.035Z,8.70
2018-03-29T07:36:17.549Z,8.90
2018-03-29T07:41:19.816Z,9.00
2018-03-29T07:46:21.337Z,8.90
2018-03-29T07:51:23.499Z,9.40
2018-03-29T07:56:25.020Z,10.00
2018-03-29T08:01:26.584Z,10.20
2018-03-29T08:06:28.909Z,10.00
2018-03-29T08:11:31.187Z,9.60
2018-03-29T08:16:33.442Z,9.80
2018-03-29T08:21:34.961Z,9.80
2018-03-29T08:26:43.489Z,9.80
2018-03-29T08:31:45.006Z,9.70
2018-03-29T08:36:46.576Z,9.50
2018-03-29T08:41:48.149Z,8.70
2018-03-29T08:46:49.657Z,8.30
2018-03-29T08:51:51.229Z,8.40
2018-03-29T08:56:52.837Z,9.60
2018-03-29T09:01:54.383Z,10.70
2018-03-29T09:06:55.913Z,11.40
2018-03-29T09:11:58.236Z,12.00
2018-03-29T09:16:59.750Z,11.90
2018-03-29T09:22:01.298Z,11.70
2018-03-29T09:27:02.830Z,11.10
2018-03-29T09:32:04.436Z,10.80
2018-03-29T09:37:06.013Z,11.50
2018-03-29T09:42:07.521Z,12.00
2018-03-29T09:47:09.288Z,11.30
2018-03-29T09:52:11.595Z,10.60
2018-03-29T09:57:13.144Z,10.50
2018-03-29T10:02:17.872Z,10.80
2018-03-29T10:07:24.144Z,11.00
2018-03-29T10:12:28.788Z,11.00
2018-03-29T10:17:33.776Z,11.00
2018-03-29T10:22:39.626Z,10.90
2018-03-29T10:27:45.245Z,11.00
2018-03-29T10:32:50.113Z,11.20
2018-03-29T10:37:54.917Z,11.20
2018-03-29T10:43:00.193Z,11.50
2018-03-29T10:48:06.807Z,11.60
2018-03-29T10:53:10.121Z,12.00
2018-03-29T10:58:15.570Z,12.20
2018-03-29T11:03:21.032Z,12.30
2018-03-29T11:08:26.188Z,12.60
2018-03-29T11:13:28.277Z,13.00
2018-03-29T11:18:33.007Z,12.20
2018-03-29T11:23:38.553Z,12.00
2018-03-29T11:28:43.228Z,11.60
2018-03-29T11:33:45.690Z,11.40
2018-03-29T11:38:47.224Z,11.40
2018-03-29T11:43:48.769Z,11.30
2018-03-29T11:48:50.344Z,11.80
2018-03-29T11:53:51.933Z,11.80
2018-03-29T11:58:53.472Z,12.00
2018-03-29T12:03:55.077Z,12.10
2018-03-29T12:08:56.727Z,12.30
2018-03-29T12:13:58.252Z,12.90
2018-03-29T12:19:00.501Z,13.20
2018-03-29T12:24:02.014Z,13.10
2018-03-29T12:29:04.424Z,12.60
2018-03-29T12:34:05.966Z,12.50
2018-03-29T12:39:08.253Z,11.70
2018-03-29T12:44:10.542Z,11.50
2018-03-29T12:49:12.825Z,11.80
2018-03-29T12:54:15.076Z,12.00
2018-03-29T12:59:16.666Z,12.00
2018-03-29T13:04:18.980Z,12.80
2018-03-29T13:09:20.601Z,12.70
2018-03-29T13:14:22.125Z,12.70
2018-03-29T13:19:24.294Z,12.60
2018-03-29T13:24:25.849Z,12.50
2018-03-29T13:29:28.153Z,12.30
2018-03-29T13:34:29.688Z,12.30
2018-03-29T13:39:31.977Z,12.40
2018-03-29T13:44:34.302Z,12.40
2018-03-29T13:49:35.900Z,12.30
2018-03-29T13:54:37.557Z,12.30
2018-03-29T13:59:39.145Z,12.10
2018-03-29T14:04:40.714Z,12.00
2018-03-29T14:09:42.237Z,12.00
2018-03-29T14:14:43.791Z,12.10
2018-03-29T14:19:46.118Z,12.50
2018-03-29T14:24:47.718Z,12.50
2018-03-29T14:29:49.340Z,12.60
2018-03-29T14:34:51.576Z,12.60
2018-03-29T14:39:53.093Z,12.60
2018-03-29T14:44:54.651Z,12.50
2018-03-29T14:49:56.223Z,12.60
2018-03-29T14:54:57.876Z,12.50
2018-03-29T15:00:00.200Z,12.10
2018-03-29T15:05:01.724Z,12.10
2018-03-29T15:10:04.016Z,12.10
2018-03-29T15:15:05.596Z,12.00
2018-03-29T15:20:07.142Z,12.00
2018-03-29T15:25:09.452Z,11.90
2018-03-29T15:30:11.021Z,11.80
2018-03-29T15:35:12.549Z,11.70
2018-03-29T15:40:14.089Z,11.80
2018-03-29T15:45:15.679Z,11.70
2018-03-29T15:50:17.237Z,11.60
2018-03-29T15:55:18.757Z,11.50
2018-03-29T16:00:20.301Z,11.30
2018-03-29T16:05:22.659Z,11.40
2018-03-29T16:10:24.193Z,11.30
2018-03-29T16:15:25.733Z,11.40
2018-03-29T16:20:28.256Z,11.50
2018-03-29T16:25:29.821Z,11.40
2018-03-29T16:30:31.405Z,11.40
2018-03-29T16:35:33.027Z,11.20
2018-03-29T16:40:35.320Z,11.10
2018-03-29T16:45:37.594Z,11.10
2018-03-29T16:50:44.764Z,11.00
2018-03-29T16:55:54.255Z,11.00
2018-03-29T17:01:02.931Z,10.90
2018-03-29T17:06:10.890Z,10.80
2018-03-29T17:11:23.643Z,10.80
2018-03-29T17:16:35.194Z,10.70
2018-03-29T17:21:43.658Z,10.50
2018-03-29T17:26:53.056Z,10.40
2018-03-29T17:31:59.990Z,10.30
2018-03-29T17:37:06.717Z,10.30
2018-03-29T17:42:11.421Z,10.20
2018-03-29T17:47:16.087Z,10.00
2018-03-29T17:52:18.664Z,9.90
2018-03-29T17:57:21.942Z,9.70
2018-03-29T18:02:27.228Z,9.40
2018-03-29T18:07:28.860Z,9.40
2018-03-29T18:12:30.579Z,9.30
2018-03-29T18:17:32.905Z,9.10
2018-03-29T18:22:34.595Z,9.00
2018-03-29T18:27:36.149Z,9.00
2018-03-29T18:32:37.726Z,8.90
2018-03-29T18:37:39.303Z,8.80
2018-03-29T18:42:41.046Z,8.70
2018-03-29T18:47:43.834Z,8.50
2018-03-29T18:52:45.410Z,8.30
2018-03-29T18:57:47.041Z,8.10
2018-03-29T19:02:49.397Z,7.70
2018-03-29T19:07:50.948Z,7.60
2018-03-29T19:12:52.716Z,7.50
2018-03-29T19:17:54.333Z,7.40
2018-03-29T19:22:55.917Z,7.30
2018-03-29T19:27:58.233Z,7.00
2018-03-29T19:32:59.869Z,6.90
2018-03-29T19:38:01.695Z,6.80
2018-03-29T19:43:03.296Z,6.60
2018-03-29T19:48:05.652Z,6.20
2018-03-29T19:53:07.279Z,6.10
2018-03-29T19:58:16.581Z,5.90
2018-03-29T20:03:18.129Z,5.90
2018-03-29T20:08:19.659Z,5.90
2018-03-29T20:13:22.121Z,5.70
2018-03-29T20:18:23.644Z,5.60
2018-03-29T20:23:25.318Z,5.80
2018-03-29T20:28:26.926Z,5.60
2018-03-29T20:33:28.686Z,5.50
2018-03-29T20:38:30.376Z,5.50
2018-03-29T20:43:32.202Z,5.40
2018-03-29T20:48:33.828Z,5.50
2018-03-29T20:53:35.436Z,5.50
2018-03-29T20:58:37.105Z,5.50
2018-03-29T21:03:38.713Z,5.30
2018-03-29T21:08:40.251Z,5.20
2018-03-29T21:13:42.825Z,5.00
2018-03-29T21:18:45.233Z,4.90
2018-03-29T21:23:47.122Z,4.80
2018-03-29T21:28:48.652Z,4.80
2018-03-29T21:33:50.257Z,4.60
2018-03-29T21:38:52.160Z,4.70
2018-03-29T21:43:53.675Z,4.60
2018-03-29T21:48:55.221Z,4.40
2018-03-29T21:53:56.796Z,4.30
2018-03-29T21:58:59.106Z,4.30
2018-03-29T22:04:00.827Z,4.20
2018-03-29T22:09:02.477Z,4.30
2018-03-29T22:14:04.038Z,4.30
2018-03-29T22:19:06.012Z,4.20
2018-03-29T22:24:07.595Z,4.10
2018-03-29T22:29:09.306Z,4.00
2018-03-29T22:34:10.922Z,3.90
2018-03-29T22:39:12.489Z,4.10
2018-03-29T22:44:14.107Z,4.10
2018-03-29T22:49:15.675Z,4.10
2018-03-29T22:54:17.246Z,4.00
2018-03-29T22:59:19.542Z,4.00
2018-03-29T23:04:22.044Z,3.90
2018-03-29T23:09:23.606Z,3.80
2018-03-29T23:14:25.893Z,3.80
2018-03-29T23:19:27.640Z,3.70
2018-03-29T23:24:29.163Z,3.70
2018-03-29T23:29:30.685Z,3.60
2018-03-29T23:34:32.980Z,3.50
2018-03-29T23:39:35.220Z,3.20
2018-03-29T23:44:36.752Z,3.20
2018-03-29T23:49:38.286Z,3.10
2018-03-29T23:54:40.532Z,3.00
2018-03-29T23:59:42.035Z,3.00
